Time;durP1;ratioP1;P1;durP2;ratioP2;P2;SDS_P1;SDS_P2;PMS_P1;PMS_P2;Temp;Humidity;BMP_temperature;BMP_pressure;BME280_temperature;BME280_humidity;BME280_pressure;Samples;Min_cycle;Max_cycle;Signal;HPM_P1;HPM_P2
2021/11/16 00:02:02;;;;;;;2.30;1.60;;;;;;;-1.68;59.70;101911.16;5024931;28;20045;-78
2021/11/16 00:04:28;;;;;;;3.85;1.85;;;;;;;-1.67;59.91;101929.94;5010480;28;20135;-78
2021/11/16 00:06:54;;;;;;;4.20;1.70;;;;;;;-1.75;59.92;101923.34;5029367;28;20084;-78
2021/11/16 00:09:20;;;;;;;4.65;2.30;;;;;;;-1.74;59.75;101922.56;5016458;28;20045;-77
2021/11/16 00:11:47;;;;;;;8.88;2.30;;;;;;;-1.76;59.89;101922.44;5030322;28;20184;-79
2021/11/16 00:14:15;;;;;;;4.15;2.13;;;;;;;-1.73;60.10;101932.00;5021990;28;20460;-79
2021/11/16 00:16:41;;;;;;;4.50;2.35;;;;;;;-1.95;59.90;101904.88;5027616;28;20041;-77
2021/11/16 00:19:11;;;;;;;4.65;2.80;;;;;;;-1.89;60.20;101904.44;5034412;28;20061;-78
2021/11/16 00:21:40;;;;;;;3.00;2.00;;;;;;;-1.95;60.06;101903.97;5010755;28;20133;-77
2021/11/16 00:24:11;;;;;;;4.70;1.70;;;;;;;-2.03;60.49;101893.19;5002559;28;20041;-78
2021/11/16 00:26:37;;;;;;;6.22;2.45;;;;;;;-2.17;60.76;101881.91;5008682;28;20524;-79
2021/11/16 00:29:03;;;;;;;5.72;2.13;;;;;;;-2.07;60.95;101901.38;5017365;28;20128;-79
2021/11/16 00:31:31;;;;;;;3.45;2.25;;;;;;;-2.14;61.01;101889.81;5018739;28;20045;-79
2021/11/16 00:33:58;;;;;;;5.72;2.00;;;;;;;-2.14;60.73;101885.63;5018504;28;20049;-80
2021/11/16 00:36:24;;;;;;;3.05;1.70;;;;;;;-2.17;60.86;101887.94;5019589;28;20164;-79
2021/11/16 00:38:50;;;;;;;5.28;1.73;;;;;;;-2.17;61.42;101892.13;5018654;28;20475;-79
2021/11/16 00:41:16;;;;;;;3.30;1.90;;;;;;;-2.34;61.12;101870.47;5021799;28;20079;-76
2021/11/16 00:43:44;;;;;;;3.38;1.77;;;;;;;-2.32;61.13;101866.38;5007980;28;20048;-77
2021/11/16 00:46:11;;;;;;;3.97;1.65;;;;;;;-2.20;61.42;101886.78;5035011;28;20057;-78
2021/11/16 00:48:38;;;;;;;3.78;1.60;;;;;;;-2.29;61.25;101864.03;5041403;28;20044;-79
2021/11/16 00:51:07;;;;;;;3.22;1.40;;;;;;;-2.19;61.51;101889.47;5026370;28;20037;-79
2021/11/16 00:53:36;;;;;;;4.90;1.60;;;;;;;-2.23;61.64;101877.25;5034184;28;20037;-80
2021/11/16 00:56:06;;;;;;;3.30;1.42;;;;;;;-2.30;61.58;101864.78;5024224;28;20033;-78
2021/11/16 00:58:32;;;;;;;8.32;1.70;;;;;;;-2.18;61.62;101896.34;5014721;28;20040;-81
2021/11/16 01:00:58;;;;;;;4.90;1.75;;;;;;;-2.38;61.72;101848.91;5011594;28;20404;-79
2021/11/16 01:03:25;;;;;;;7.25;1.80;;;;;;;-2.17;61.88;101881.91;5004771;28;21288;-78
2021/11/16 01:05:52;;;;;;;3.75;2.05;;;;;;;-2.20;61.98;101871.47;5039300;28;20045;-80
2021/11/16 01:08:18;;;;;;;3.08;1.67;;;;;;;-2.25;61.39;101860.06;5037690;28;20044;-80
2021/11/16 01:10:45;;;;;;;4.68;1.52;;;;;;;-2.20;62.09;101869.84;5024150;28;20032;-78
2021/11/16 01:13:12;;;;;;;3.28;1.52;;;;;;;-2.21;62.22;101852.75;5038314;28;20041;-79
2021/11/16 01:15:40;;;;;;;4.38;1.67;;;;;;;-2.33;62.37;101828.88;5025634;28;20097;-77
2021/11/16 01:18:08;;;;;;;5.35;2.15;;;;;;;-2.16;62.15;101843.78;5037915;28;20494;-79
2021/11/16 01:20:35;;;;;;;2.83;1.33;;;;;;;-2.28;62.48;101830.09;5005921;28;20128;-80
2021/11/16 01:23:04;;;;;;;2.30;1.40;;;;;;;-2.20;62.18;101838.31;5040776;28;20064;-76
2021/11/16 01:25:33;;;;;;;2.42;1.45;;;;;;;-2.19;62.44;101842.66;5023749;28;20124;-78
2021/11/16 01:28:06;;;;;;;2.55;1.52;;;;;;;-2.26;62.28;101826.00;5024704;28;20108;-78
2021/11/16 01:30:32;;;;;;;3.25;1.50;;;;;;;-2.42;62.54;101800.97;5013487;28;20045;-80
2021/11/16 01:33:26;;;;;;;4.13;1.58;;;;;;;-2.38;62.63;101800.44;5036701;28;20048;-78
2021/11/16 01:35:46;;;;;;;3.63;1.48;;;;;;;-2.25;62.74;101822.66;5038748;28;21394;-79
2021/11/16 01:38:15;;;;;;;5.88;1.40;;;;;;;-2.30;62.27;101813.78;5026078;28;20515;-79
2021/11/16 01:40:42;;;;;;;4.07;1.60;;;;;;;-2.27;62.46;101825.13;5021434;28;20048;-79
2021/11/16 01:43:10;;;;;;;3.45;1.48;;;;;;;-2.28;62.61;101817.34;5039575;28;20574;-78
2021/11/16 01:45:38;;;;;;;2.55;1.40;;;;;;;-2.23;62.89;101807.50;5028062;28;20055;-80
2021/11/16 01:48:05;;;;;;;3.50;1.70;;;;;;;-2.30;62.56;101798.47;5028300;28;20166;-80
2021/11/16 01:50:32;;;;;;;3.60;1.70;;;;;;;-2.30;62.40;101795.91;5035854;28;20044;-79
2021/11/16 01:52:58;;;;;;;2.67;1.30;;;;;;;-2.27;62.70;101808.91;5019056;28;20049;-78
2021/11/16 01:55:24;;;;;;;4.40;1.50;;;;;;;-2.32;62.82;101789.84;5031299;28;20075;-79
2021/11/16 01:57:52;;;;;;;3.53;1.65;;;;;;;-2.25;62.85;101802.25;5040925;28;20070;-77
2021/11/16 02:00:26;;;;;;;5.13;1.60;;;;;;;-2.23;62.93;101794.75;5054939;28;20041;-77
2021/11/16 02:02:52;;;;;;;3.17;1.30;;;;;;;-2.44;62.67;101759.22;5055510;28;20050;-79
2021/11/16 02:05:18;;;;;;;2.88;1.60;;;;;;;-2.22;62.89;101792.28;5053639;28;20037;-79
2021/11/16 02:07:47;;;;;;;1.92;1.17;;;;;;;-2.06;63.14;101795.97;5052389;28;20064;-78
2021/11/16 02:10:15;;;;;;;1.60;1.15;;;;;;;-1.93;63.22;101795.22;5055581;28;20067;-79
2021/11/16 02:12:41;;;;;;;2.47;1.10;;;;;;;-1.90;62.87;101788.72;5041256;28;20079;-76
2021/11/16 02:15:11;;;;;;;2.75;1.23;;;;;;;-1.79;63.20;101778.38;5031123;28;20045;-79
2021/11/16 02:17:38;;;;;;;3.08;1.40;;;;;;;-1.73;62.77;101781.38;5030248;28;20056;-78
2021/11/16 02:20:06;;;;;;;2.83;1.50;;;;;;;-1.75;62.70;101762.50;5039083;28;20037;-78
2021/11/16 02:22:32;;;;;;;3.00;1.25;;;;;;;-1.55;62.78;101780.16;5053990;28;20033;-81
2021/11/16 02:24:58;;;;;;;5.03;1.63;;;;;;;-1.48;62.40;101780.59;5037440;28;20060;-79
2021/11/16 02:27:24;;;;;;;4.03;1.50;;;;;;;-1.40;62.14;101784.56;5030229;28;20041;-79
2021/11/16 02:29:50;;;;;;;3.03;1.48;;;;;;;-1.39;62.31;101776.13;5056179;28;20052;-77
2021/11/16 02:32:16;;;;;;;3.63;1.35;;;;;;;-1.35;62.59;101761.94;5061434;28;20037;-80
2021/11/16 02:34:42;;;;;;;8.13;1.45;;;;;;;-1.22;62.76;101762.91;5045044;28;20439;-78
2021/11/16 02:37:08;;;;;;;5.45;1.45;;;;;;;-1.16;62.30;101764.09;5038612;28;20044;-78
2021/11/16 02:39:34;;;;;;;1.92;1.30;;;;;;;-1.36;61.99;101730.38;5030518;28;20123;-80
2021/11/16 02:42:00;;;;;;;2.53;1.27;;;;;;;-1.25;61.74;101749.94;5030182;28;20056;-79
2021/11/16 02:44:26;;;;;;;4.60;1.30;;;;;;;-1.21;61.77;101757.00;5043963;28;20064;-80
2021/11/16 02:46:52;;;;;;;2.80;1.15;;;;;;;-1.04;61.78;101756.41;5030537;28;20357;-78
2021/11/16 02:49:18;;;;;;;2.35;1.17;;;;;;;-0.99;61.86;101753.38;5050018;28;20508;-79
2021/11/16 02:51:45;;;;;;;4.68;1.70;;;;;;;-1.06;61.82;101725.66;5047087;28;20052;-79
2021/11/16 02:54:16;;;;;;;2.72;1.17;;;;;;;-0.93;61.98;101737.59;5004490;28;20044;-78
2021/11/16 02:56:43;;;;;;;2.15;1.10;;;;;;;-0.92;61.40;101724.91;5031113;28;20048;-80
2021/11/16 02:59:10;;;;;;;2.38;1.05;;;;;;;-0.84;61.25;101733.09;5044171;28;20037;-80
2021/11/16 03:01:36;;;;;;;3.08;1.40;;;;;;;-0.91;61.71;101708.81;5002546;28;20041;-78
2021/11/16 03:04:03;;;;;;;2.08;1.20;;;;;;;-0.80;61.92;101724.88;5032231;28;20123;-77
2021/11/16 03:06:29;;;;;;;4.35;1.15;;;;;;;-0.77;61.85;101725.09;5031164;28;20025;-78
2021/11/16 03:08:56;;;;;;;4.82;1.40;;;;;;;-0.84;61.21;101715.22;5032245;28;20148;-80
2021/11/16 03:11:22;;;;;;;4.20;1.40;;;;;;;-0.92;61.16;101693.38;5030741;28;20048;-80
2021/11/16 03:13:47;;;;;;;2.47;1.27;;;;;;;-0.87;61.58;101693.69;5041416;28;20033;-79
2021/11/16 03:16:16;;;;;;;2.80;1.10;;;;;;;-0.78;61.33;101705.41;5045956;28;20049;-80
2021/11/16 03:18:47;;;;;;;2.30;1.40;;;;;;;-0.74;61.19;101703.94;5028331;28;20045;-80
2021/11/16 03:21:15;;;;;;;10.90;1.90;;;;;;;-0.73;60.87;101692.06;5041625;28;20044;-79
2021/11/16 03:23:43;;;;;;;3.20;1.70;;;;;;;-0.79;60.87;101685.75;5043815;28;20072;-78
2021/11/16 03:26:09;;;;;;;3.42;1.50;;;;;;;-1.12;60.75;101641.78;5048155;28;20030;-78
2021/11/16 03:28:38;;;;;;;4.28;1.30;;;;;;;-0.92;61.00;101686.56;5016402;28;20144;-79
2021/11/16 03:31:18;;;;;;;4.53;1.15;;;;;;;-0.97;61.40;101676.84;5042479;28;20059;-79
2021/11/16 03:33:44;;;;;;;3.60;1.25;;;;;;;-1.15;60.49;101643.22;5000268;28;20037;-78
2021/11/16 03:36:11;;;;;;;3.88;1.17;;;;;;;-0.96;61.16;101676.91;5031253;28;20037;-78
2021/11/16 03:38:39;;;;;;;3.20;1.02;;;;;;;-1.02;60.98;101662.84;5040240;28;20045;-79
2021/11/16 03:41:06;;;;;;;3.10;1.48;;;;;;;-1.16;60.81;101644.91;5036017;28;20040;-78
2021/11/16 03:43:33;;;;;;;3.40;1.10;;;;;;;-1.00;61.02;101674.06;5043137;28;20151;-79
2021/11/16 03:45:59;;;;;;;5.88;1.50;;;;;;;-1.00;61.32;101674.97;5020508;28;20053;-78
2021/11/16 03:48:28;;;;;;;5.20;1.38;;;;;;;-0.99;61.20;101663.94;5042919;28;20056;-78
2021/11/16 03:50:56;;;;;;;2.30;1.30;;;;;;;-1.07;61.02;101657.44;5039367;28;20041;-78
2021/11/16 03:53:22;;;;;;;3.72;1.40;;;;;;;-1.35;60.84;101614.66;5012974;28;20045;-79
2021/11/16 03:55:49;;;;;;;2.08;1.08;;;;;;;-1.09;61.05;101664.09;5021613;28;20057;-77
2021/11/16 03:58:18;;;;;;;2.30;1.02;;;;;;;-1.19;60.89;101648.91;5040504;28;20041;-78
2021/11/16 04:00:51;;;;;;;4.00;1.33;;;;;;;-1.09;61.09;101652.19;5039473;28;20135;-78
2021/11/16 04:03:21;;;;;;;3.85;1.42;;;;;;;-1.03;61.56;101646.63;5038616;28;20131;-79
2021/11/16 04:05:47;;;;;;;7.80;1.70;;;;;;;-1.08;60.71;101625.00;5009935;28;20051;-79
2021/11/16 04:08:13;;;;;;;3.08;1.67;;;;;;;-1.16;60.70;101619.38;5039937;28;21203;-78
2021/11/16 04:10:39;;;;;;;1.95;1.08;;;;;;;-1.07;61.09;101621.66;5027160;28;20043;-78
2021/11/16 04:13:05;;;;;;;8.55;1.40;;;;;;;-1.02;60.94;101621.97;5020337;28;20523;-80
2021/11/16 04:15:32;;;;;;;2.60;1.20;;;;;;;-1.42;61.01;101549.50;5035439;28;20068;-79
2021/11/16 04:18:01;;;;;;;3.28;1.00;;;;;;;-1.04;60.63;101605.63;5021449;28;20047;-77
2021/11/16 04:20:33;;;;;;;1.88;1.23;;;;;;;-1.10;60.93;101594.19;5031175;28;20072;-77
2021/11/16 04:23:01;;;;;;;3.13;1.20;;;;;;;-1.26;60.60;101574.44;5044301;28;20049;-80
2021/11/16 04:25:28;;;;;;;2.88;0.93;;;;;;;-1.33;60.96;101567.13;5040022;28;20516;-79
2021/11/16 04:27:54;;;;;;;2.75;1.00;;;;;;;-1.17;60.97;101604.81;5038875;28;20072;-79
2021/11/16 04:30:25;;;;;;;3.63;1.00;;;;;;;-1.13;61.00;101598.22;5038822;28;20040;-79
2021/11/16 04:32:52;;;;;;;3.15;1.13;;;;;;;-1.09;61.03;101592.56;5013472;28;20045;-80
2021/11/16 04:35:19;;;;;;;1.60;1.00;;;;;;;-1.15;60.91;101580.25;5023303;28;20041;-80
2021/11/16 04:37:49;;;;;;;4.32;1.23;;;;;;;-1.10;60.70;101593.34;5001032;28;20036;-81
2021/11/16 04:40:19;;;;;;;4.53;1.30;;;;;;;-1.09;60.80;101598.53;5043498;28;20052;-80
2021/11/16 04:42:46;;;;;;;4.15;1.20;;;;;;;-1.18;61.19;101571.47;5020153;28;20052;-78
2021/11/16 04:45:20;;;;;;;3.35;1.15;;;;;;;-1.06;61.06;101582.53;4998117;28;20157;-80
2021/11/16 04:50:58;;;;;;;5.13;1.48;;;;;;;-1.14;61.13;101563.25;5047311;28;20033;-77
2021/11/16 04:53:52;;;;;;;2.70;1.20;;;;;;;-1.19;61.04;101555.28;5011809;28;20045;-81
2021/11/16 05:04:15;;;;;;;7.43;1.40;;;;;;;-1.23;60.81;101560.97;5022703;28;20045;-80
2021/11/16 05:06:43;;;;;;;4.28;1.70;;;;;;;-1.24;60.72;101559.19;5008623;28;20103;-79
2021/11/16 05:09:09;;;;;;;5.07;1.33;;;;;;;-1.47;61.02;101529.56;5040116;28;20045;-78
2021/11/16 05:11:34;;;;;;;4.47;1.40;;;;;;;-1.45;60.72;101550.97;5038628;28;20107;-80
2021/11/16 05:14:01;;;;;;;3.35;1.55;;;;;;;-1.52;61.12;101545.44;5008904;28;20475;-82
2021/11/16 05:16:26;;;;;;;2.88;1.50;;;;;;;-1.52;61.52;101549.66;5039537;28;20136;-81
2021/11/16 05:18:53;;;;;;;2.08;1.30;;;;;;;-1.60;61.10;101536.38;5037396;28;20140;-79
2021/11/16 05:21:20;;;;;;;2.33;1.10;;;;;;;-1.30;61.05;101535.78;5022605;28;20036;-79
2021/11/16 05:23:49;;;;;;;1.60;1.20;;;;;;;-1.04;60.88;101499.19;5017069;28;20045;-79
2021/11/16 05:26:14;;;;;;;1.30;1.00;;;;;;;-0.37;61.57;101527.34;5045789;28;20116;-77
2021/11/16 05:28:40;;;;;;;8.85;1.38;;;;;;;0.18;60.74;101517.88;5044045;28;20071;-78
2021/11/16 05:31:06;;;;;;;2.97;1.30;;;;;;;0.53;59.64;101506.28;5024028;28;20044;-79
2021/11/16 05:33:32;;;;;;;2.75;1.00;;;;;;;0.80;59.72;101501.88;5027211;28;20041;-77
2021/11/16 05:35:59;;;;;;;1.70;1.17;;;;;;;1.14;59.70;101519.22;5006531;28;20106;-80
2021/11/16 05:38:31;;;;;;;2.30;1.27;;;;;;;1.54;58.66;101488.88;5041372;28;20091;-79
2021/11/16 05:40:57;;;;;;;1.63;1.20;;;;;;;2.39;58.94;101525.09;5029846;28;20076;-81
2021/11/16 05:43:24;;;;;;;2.40;1.35;;;;;;;3.01;58.48;101496.47;5008468;28;20032;-81
2021/11/16 05:45:51;;;;;;;2.25;1.30;;;;;;;3.69;55.89;101506.53;5038967;28;20084;-78
2021/11/16 05:48:20;;;;;;;7.10;1.75;;;;;;;3.90;55.79;101486.91;5008394;28;20057;-80
2021/11/16 05:50:46;;;;;;;3.30;1.45;;;;;;;4.66;55.51;101504.81;5044583;28;20051;-79
2021/11/16 05:53:15;;;;;;;2.75;1.90;;;;;;;5.20;55.67;101486.38;5013259;28;20036;-82
2021/11/16 05:55:43;;;;;;;8.70;2.00;;;;;;;6.06;53.63;101505.16;5054105;28;20041;-78
2021/11/16 05:58:09;;;;;;;6.63;1.92;;;;;;;6.72;52.76;101491.97;5039973;28;20075;-82
2021/11/16 06:00:34;;;;;;;5.78;1.60;;;;;;;7.19;50.61;101489.16;5032014;28;20045;-81
2021/11/16 06:03:00;;;;;;;11.30;1.70;;;;;;;7.69;50.97;101475.16;5035971;28;20101;-79
2021/11/16 06:05:26;;;;;;;3.13;1.30;;;;;;;7.51;49.36;101429.75;5030143;28;20064;-80
2021/11/16 06:07:53;;;;;;;3.53;1.38;;;;;;;7.96;48.70;101422.38;5053885;28;20040;-79
2021/11/16 06:10:18;;;;;;;4.55;1.58;;;;;;;8.27;46.68;101447.41;5017129;28;20044;-80
2021/11/16 06:12:44;;;;;;;3.47;1.20;;;;;;;8.36;47.37;101443.31;5043501;28;20065;-80
2021/11/16 06:15:10;;;;;;;2.33;1.33;;;;;;;8.79;46.26;101430.56;5021558;28;20041;-77
2021/11/16 06:17:40;;;;;;;3.80;1.60;;;;;;;9.11;45.79;101407.97;5026187;28;20068;-79
2021/11/16 06:20:06;;;;;;;2.47;1.30;;;;;;;9.78;45.16;101435.41;5019508;28;20119;-79
2021/11/16 06:22:32;;;;;;;3.13;1.60;;;;;;;10.28;43.47;101407.72;5029613;28;20098;-79
2021/11/16 06:24:59;;;;;;;7.38;1.63;;;;;;;10.63;42.15;101421.38;5033084;28;20037;-79
2021/11/16 06:27:26;;;;;;;2.63;1.20;;;;;;;10.68;41.56;101408.44;5031441;28;20040;-79
2021/11/16 06:29:52;;;;;;;4.53;1.63;;;;;;;11.34;41.90;101394.63;5029313;28;20147;-79
2021/11/16 06:32:18;;;;;;;13.05;1.80;;;;;;;11.63;39.63;101368.06;5031077;28;20057;-80
2021/11/16 06:34:44;;;;;;;8.23;1.60;;;;;;;11.65;38.75;101384.63;5041833;28;20127;-79
2021/11/16 06:37:15;;;;;;;2.70;1.40;;;;;;;11.83;36.80;101370.88;5044770;28;20052;-80
2021/11/16 06:39:43;;;;;;;2.85;1.40;;;;;;;11.94;38.90;101352.75;5034143;28;20059;-80
2021/11/16 06:42:13;;;;;;;4.30;1.60;;;;;;;12.12;36.05;101367.75;5041697;28;20469;-78
2021/11/16 06:44:39;;;;;;;3.13;1.50;;;;;;;11.87;36.87;101357.03;5013979;28;20970;-80
2021/11/16 06:47:13;;;;;;;2.65;1.35;;;;;;;12.20;36.63;101374.78;5044591;28;20052;-80
2021/11/16 06:49:50;;;;;;;5.38;2.13;;;;;;;12.23;36.32;101379.19;5019259;28;20043;-80
2021/11/16 06:52:18;;;;;;;7.60;1.70;;;;;;;13.17;36.45;101389.44;5049241;28;20041;-81
2021/11/16 06:54:45;;;;;;;6.63;2.10;;;;;;;13.60;35.29;101378.34;5049339;28;20041;-81
2021/11/16 06:57:12;;;;;;;4.13;1.73;;;;;;;13.49;34.16;101361.72;5021398;28;20110;-80
2021/11/16 06:59:39;;;;;;;5.93;1.67;;;;;;;13.93;33.91;101366.22;5034351;28;20094;-79
2021/11/16 07:02:05;;;;;;;5.38;1.52;;;;;;;14.12;33.06;101361.91;5009090;28;20100;-80
2021/11/16 07:04:37;;;;;;;2.88;1.63;;;;;;;14.29;33.26;101366.28;5044810;28;20112;-80
2021/11/16 07:07:10;;;;;;;5.75;1.80;;;;;;;14.35;31.98;101352.31;5048811;28;20302;-79
2021/11/16 07:09:43;;;;;;;4.20;1.70;;;;;;;14.75;31.41;101371.53;5054635;28;20083;-82
2021/11/16 07:12:15;;;;;;;3.45;1.83;;;;;;;15.05;30.80;101372.38;5029835;28;20151;-80
2021/11/16 07:14:41;;;;;;;3.65;1.92;;;;;;;15.36;30.69;101351.28;5040257;28;20130;-78
2021/11/16 07:17:15;;;;;;;4.75;1.90;;;;;;;15.99;30.30;101327.38;5026630;28;20029;-80
2021/11/16 07:19:45;;;;;;;5.53;2.17;;;;;;;16.13;29.41;101345.63;5041633;28;20041;-79
2021/11/16 07:22:19;;;;;;;8.95;2.22;;;;;;;16.09;29.18;101329.03;5055844;28;20052;-79
2021/11/16 07:24:52;;;;;;;4.50;1.80;;;;;;;15.90;29.32;101329.19;5030810;28;20107;-79
2021/11/16 07:27:30;;;;;;;8.00;2.22;;;;;;;16.52;29.29;101336.56;5045801;28;20029;-81
2021/11/16 07:29:57;;;;;;;4.85;1.70;;;;;;;17.30;27.48;101325.25;5037571;28;20041;-78
2021/11/16 07:32:31;;;;;;;4.70;2.00;;;;;;;17.42;27.25;101335.59;5037787;28;20040;-82
2021/11/16 07:35:04;;;;;;;5.05;2.10;;;;;;;17.87;27.71;101342.91;5052457;28;20064;-81
2021/11/16 07:37:33;;;;;;;5.75;2.38;;;;;;;18.45;26.30;101334.09;5031635;28;20675;-79
2021/11/16 07:40:04;;;;;;;5.05;2.38;;;;;;;18.90;26.47;101343.84;5042276;28;20037;-80
2021/11/16 07:42:36;;;;;;;7.07;2.42;;;;;;;19.77;25.62;101332.34;5043232;28;20041;-80
2021/11/16 07:45:13;;;;;;;4.30;2.42;;;;;;;20.64;24.91;101332.03;5044998;28;20041;-80
2021/11/16 07:47:42;;;;;;;6.03;2.60;;;;;;;21.10;24.28;101317.56;5031456;28;20059;-79
2021/11/16 07:50:12;;;;;;;4.03;2.40;;;;;;;20.64;24.47;101305.59;5026865;28;20037;-79
2021/11/16 07:52:44;;;;;;;9.77;2.90;;;;;;;20.30;23.47;101304.72;5009868;28;20036;-80
2021/11/16 07:55:22;;;;;;;4.97;2.90;;;;;;;20.22;23.99;101261.75;5033698;28;20037;-79
2021/11/16 07:57:50;;;;;;;6.90;2.88;;;;;;;20.25;24.91;101301.31;5046441;28;20190;-79
2021/11/16 08:00:25;;;;;;;7.38;2.78;;;;;;;21.12;24.17;101281.34;5044052;28;20064;-80
2021/11/16 08:03:04;;;;;;;8.35;2.60;;;;;;;21.96;22.51;101244.34;5027167;28;20434;-80
2021/11/16 08:14:26;;;;;;;7.50;2.75;;;;;;;21.56;21.86;101262.34;5051905;28;20945;-79
2021/11/16 08:17:00;;;;;;;8.82;2.83;;;;;;;19.23;22.02;101212.16;5005330;28;20061;-78
2021/11/16 08:19:36;;;;;;;5.75;2.97;;;;;;;19.13;22.46;101285.38;5029002;28;20037;-77
2021/11/16 08:22:12;;;;;;;5.35;2.63;;;;;;;18.85;22.92;101291.19;5042259;28;20040;-77
2021/11/16 08:24:41;;;;;;;16.40;2.78;;;;;;;19.02;23.44;101282.09;5030840;28;20104;-79
2021/11/16 08:27:35;;;;;;;11.38;3.00;;;;;;;19.68;23.83;101279.78;5028963;28;20526;-82
2021/11/16 08:30:04;;;;;;;11.68;3.13;;;;;;;21.07;22.60;101265.59;5023641;28;20040;-79
2021/11/16 08:32:38;;;;;;;11.73;3.22;;;;;;;21.04;21.39;101236.59;5033378;28;20056;-77
2021/11/16 08:35:13;;;;;;;6.40;3.00;;;;;;;19.90;21.91;101198.28;5045109;28;20052;-80
2021/11/16 08:37:44;;;;;;;7.75;3.03;;;;;;;19.49;22.41;101243.25;5031422;28;20060;-80
2021/11/16 08:40:19;;;;;;;8.25;3.15;;;;;;;19.68;22.02;101261.31;5032310;28;20038;-78
2021/11/16 08:42:58;;;;;;;7.53;2.50;;;;;;;20.06;21.94;101254.22;5015360;28;20045;-78
2021/11/16 08:45:28;;;;;;;7.47;3.03;;;;;;;20.71;21.46;101252.50;5028970;28;20053;-79
2021/11/16 08:48:08;;;;;;;6.20;2.72;;;;;;;19.88;21.27;101242.34;5037686;28;20053;-79
2021/11/16 08:50:48;;;;;;;4.22;2.60;;;;;;;19.84;21.14;101199.28;5027744;28;20076;-79
2021/11/16 08:53:36;;;;;;;4.43;2.67;;;;;;;20.17;21.64;101206.38;5044578;28;20037;-79
2021/11/16 08:56:17;;;;;;;5.63;2.65;;;;;;;20.76;21.37;101173.03;5028644;28;20045;-79
2021/11/16 08:58:44;;;;;;;8.88;2.65;;;;;;;21.33;20.54;101188.97;5027145;28;20042;-79
2021/11/16 09:01:11;;;;;;;10.80;3.03;;;;;;;20.87;20.70;101212.41;5044890;28;20084;-80
2021/11/16 09:03:43;;;;;;;8.63;2.97;;;;;;;20.28;21.28;101192.88;5031809;28;20156;-80
2021/11/16 09:06:22;;;;;;;8.23;2.40;;;;;;;19.45;20.66;101154.50;5046614;28;20794;-82
2021/11/16 09:09:11;;;;;;;3.63;1.92;;;;;;;18.74;22.03;101169.25;5049587;28;20056;-80
2021/11/16 09:11:57;;;;;;;4.07;2.40;;;;;;;18.76;22.29;101143.72;5031171;28;20060;-81
2021/11/16 09:14:23;;;;;;;4.57;2.30;;;;;;;19.31;21.37;101175.06;5050477;28;20132;-81
2021/11/16 09:16:49;;;;;;;4.90;2.25;;;;;;;18.98;20.86;101191.59;5029192;28;20048;-81
2021/11/16 09:19:32;;;;;;;5.55;2.53;;;;;;;19.05;22.47;101173.91;5023046;28;20194;-81
2021/11/16 09:22:02;;;;;;;6.85;2.70;;;;;;;19.95;21.28;101171.75;5042389;28;20072;-77
2021/11/16 09:24:33;;;;;;;5.70;2.78;;;;;;;19.76;20.59;101182.75;5048066;28;20109;-82
2021/11/16 09:27:12;;;;;;;7.22;2.22;;;;;;;18.38;21.10;101161.22;5023158;28;20127;-80
2021/11/16 09:29:40;;;;;;;11.32;2.22;;;;;;;17.89;22.46;101174.34;5043503;28;20049;-81
2021/11/16 09:32:10;;;;;;;6.57;2.25;;;;;;;17.10;23.48;101159.81;5014252;28;20045;-81
2021/11/16 09:34:40;;;;;;;6.40;2.13;;;;;;;16.60;23.24;101155.19;5034807;28;20056;-82
2021/11/16 09:37:16;;;;;;;6.97;1.95;;;;;;;16.79;23.99;101157.56;5043769;28;20132;-80
2021/11/16 09:39:51;;;;;;;5.60;2.25;;;;;;;17.41;23.61;101140.94;5027651;28;20106;-80
2021/11/16 09:42:24;;;;;;;8.13;2.33;;;;;;;17.43;23.06;101139.16;5014395;28;20042;-81
2021/11/16 09:44:54;;;;;;;7.90;2.55;;;;;;;17.94;22.88;101161.97;5031386;28;20044;-81
2021/11/16 09:47:50;;;;;;;10.23;2.38;;;;;;;18.20;22.03;101134.34;5003341;28;20484;-84
2021/11/16 09:50:20;;;;;;;6.18;2.05;;;;;;;18.56;21.63;101133.59;5031490;28;20076;-78
2021/11/16 09:52:49;;;;;;;;;;;;;;;16.35;22.57;101171.22;5045811;28;20112;-81
2021/11/16 09:55:24;;;;;;;4.82;2.22;;;;;;;13.71;24.01;101153.44;5044029;28;20342;-81
2021/11/16 09:57:55;;;;;;;7.47;2.45;;;;;;;11.85;25.55;101155.31;5029708;28;20041;-81
2021/11/16 10:00:33;;;;;;;5.03;2.20;;;;;;;9.79;27.41;101073.19;5044696;28;20045;-82
2021/11/16 10:03:11;;;;;;;6.32;2.55;;;;;;;9.24;28.86;101177.09;5047550;28;20053;-81
2021/11/16 10:05:51;;;;;;;7.50;2.40;;;;;;;8.07;30.12;101099.44;5047765;28;20037;-82
2021/11/16 10:08:18;;;;;;;3.13;2.00;;;;;;;6.87;31.13;101014.56;5052972;28;20067;-84
2021/11/16 10:10:48;;;;;;;6.35;2.22;;;;;;;7.17;32.15;101174.09;5021231;28;20041;-81
2021/11/16 10:13:26;;;;;;;5.25;2.15;;;;;;;6.32;33.34;101136.38;5017335;28;20051;-81
2021/11/16 10:15:55;;;;;;;7.00;2.00;;;;;;;5.76;33.73;101095.88;5045807;28;20041;-80
2021/11/16 10:18:23;;;;;;;5.38;2.30;;;;;;;5.76;34.23;101175.94;5025824;28;20041;-81
2021/11/16 10:20:52;;;;;;;5.47;2.42;;;;;;;5.47;35.22;101157.78;5042122;28;20048;-79
2021/11/16 10:23:30;;;;;;;7.60;2.30;;;;;;;5.16;35.54;101145.53;5028674;28;20055;-81
2021/11/16 10:25:58;;;;;;;6.22;2.08;;;;;;;4.92;36.47;101151.59;5049309;28;20064;-81
2021/11/16 10:28:26;;;;;;;4.35;2.10;;;;;;;4.31;36.57;101074.63;5044556;28;20070;-81
2021/11/16 10:30:58;;;;;;;7.40;2.28;;;;;;;4.59;36.95;101157.25;5045048;28;20454;-83
2021/11/16 10:33:31;;;;;;;6.95;2.45;;;;;;;4.20;37.93;101148.06;5027218;28;20412;-83
2021/11/16 10:36:09;;;;;;;5.82;2.05;;;;;;;3.73;38.70;101101.59;5027641;28;20115;-81
2021/11/16 10:39:02;;;;;;;7.72;2.13;;;;;;;3.98;38.67;101169.53;5027910;28;20091;-83
2021/11/16 10:41:34;;;;;;;5.18;2.10;;;;;;;3.48;39.26;101095.47;5017786;28;20037;-82
2021/11/16 10:44:02;;;;;;;5.30;2.40;;;;;;;3.64;39.99;101150.16;5039278;28;20057;-77
2021/11/16 10:46:32;;;;;;;5.03;2.30;;;;;;;3.65;39.59;101169.91;5024123;28;20377;-82
2021/11/16 10:49:05;;;;;;;4.22;2.38;;;;;;;3.46;39.96;101144.31;5041283;28;20064;-79
2021/11/16 10:51:39;;;;;;;8.05;2.20;;;;;;;3.00;40.52;101094.34;5054431;28;20093;-81
2021/11/16 10:54:11;;;;;;;3.05;2.25;;;;;;;3.15;40.55;101142.13;5036463;28;20135;-80
2021/11/16 10:56:37;;;;;;;4.70;2.92;;;;;;;2.95;41.86;101143.84;5022742;28;20048;-82
2021/11/16 10:59:29;;;;;;;5.35;2.22;;;;;;;2.96;41.63;101146.50;5021408;28;20084;-82
2021/11/16 11:02:07;;;;;;;4.75;2.50;;;;;;;2.87;41.90;101146.06;5040442;28;20110;-80
2021/11/16 11:04:40;;;;;;;5.13;2.15;;;;;;;2.36;42.00;101085.56;5025342;28;20029;-82
2021/11/16 11:07:13;;;;;;;10.43;3.40;;;;;;;2.01;43.02;101010.38;5043662;28;20064;-82
2021/11/16 11:09:40;;;;;;;4.00;2.10;;;;;;;1.98;42.31;101030.78;5029717;28;20041;-83
2021/11/16 11:12:21;;;;;;;6.57;2.20;;;;;;;2.35;42.98;101091.53;5022251;28;20438;-81
2021/11/16 11:14:48;;;;;;;4.50;1.85;;;;;;;2.32;43.28;101109.38;5034750;28;20437;-81
2021/11/16 11:17:16;;;;;;;4.68;2.25;;;;;;;1.94;43.87;101060.59;5018916;28;20071;-80
2021/11/16 11:19:44;;;;;;;6.25;2.28;;;;;;;2.26;43.85;101111.69;5045975;28;20495;-80
2021/11/16 11:22:23;;;;;;;10.13;2.33;;;;;;;2.23;43.90;101098.69;5047760;28;20400;-82
2021/11/16 11:27:57;;;;;;;4.25;2.10;;;;;;;2.13;44.16;101099.94;5035846;28;20045;-78
2021/11/16 11:30:25;;;;;;;4.32;2.05;;;;;;;2.10;44.71;101107.50;5024805;28;20114;-83
2021/11/16 11:32:57;;;;;;;3.97;1.85;;;;;;;1.90;44.86;101068.06;5020992;28;20108;-81
2021/11/16 11:35:28;;;;;;;8.80;3.05;;;;;;;2.04;45.00;101096.94;5058796;28;20017;-80
2021/11/16 11:37:59;;;;;;;5.07;1.92;;;;;;;2.04;44.99;101095.28;5037726;28;20052;-82
2021/11/16 11:40:36;;;;;;;4.60;2.20;;;;;;;2.03;45.27;101102.88;5000566;28;20080;-82
2021/11/16 11:43:14;;;;;;;6.28;2.20;;;;;;;1.98;45.04;101089.84;5028684;28;20095;-80
2021/11/16 11:45:46;;;;;;;4.05;1.75;;;;;;;1.93;45.56;101104.16;5012822;28;20496;-79
2021/11/16 11:48:18;;;;;;;;;;;;;;;1.92;45.67;101100.72;5017374;28;20053;-83
2021/11/16 11:50:50;;;;;;;8.02;2.30;;;;;;;1.94;45.77;101111.03;5034325;28;19923;-81
2021/11/16 11:53:29;;;;;;;;;;;;;;;1.92;45.48;101108.41;5038125;28;20065;-80
2021/11/16 11:56:07;;;;;;;6.82;2.85;;;;;;;1.43;45.56;101029.97;5016562;28;20063;-80
2021/11/16 11:58:37;;;;;;;4.50;2.33;;;;;;;1.80;45.41;101093.31;5012744;28;20042;-82
2021/11/16 12:01:07;;;;;;;3.88;2.22;;;;;;;1.86;45.56;101107.25;5032651;28;20037;-82
2021/11/16 12:03:34;;;;;;;8.05;2.70;;;;;;;1.69;46.55;101078.22;5011623;28;20052;-80